»·PEaware :: NWA5547 KORD-KJFK

NWA5547 :: KORD-KJFK

FLIGHT INFORMATION

Flight Status: Arrived
Operator:
Northwest Airlines
More flights by this operator :: More flights under this callsign
Pilot: Anonymous 35349 (35349)
Aircraft: CANADAIR CL-600 CRJ-900
(CRJ9)
More flights by this aircraft type
Origin: KORD Chicago-O'Hare Intl
United States
Destination: KJFK Kennedy Intl
United States
More flights between these airports :: More routes between these airports
Route: DUFEE ELX HAAKK DOXXY SOSIC JHW J70 LVZ LENDY6
File this flight plan on PilotEdge
Remarks:
Altitude:
(Current/Filed)
31,000ft
Speed:
(Current/Filed)
330kts
Departed: 06-Aug-21 01:17 AM
Arrived: 06-Aug-21 02:55 AM
Distance/Time
Traveled:
640nm/1:38
Distance/Time
To Go:
Arrived

Flight Plot

Page will automatically refresh every two minutes.

Flight plan parsing failed; only flown route is shown


Map Options




Map Legend


Flown Route
Filed Route
Departure Airport
Arrival Airport
Navaid (VOR, NDB)
Fix

Horizontal Profiles

Position Reports

Time Latitude Longitude Heading Altitude Ground
Speed
06-Aug-21 01:02 41.974906 -87.907292 349 673ft 0kts
06-Aug-21 01:03 41.974911 -87.907293 349 673ft 0kts
06-Aug-21 01:04 41.974901 -87.907291 349 673ft 1kts
06-Aug-21 01:06 41.974851 -87.907279 349 673ft 0kts
06-Aug-21 01:07 41.974851 -87.907279 349 673ft 0kts
06-Aug-21 01:08 41.974851 -87.907279 349 673ft 0kts
06-Aug-21 01:09 41.974520 -87.907200 349 673ft 3kts
06-Aug-21 01:10 41.973414 -87.909177 236 673ft 11kts
06-Aug-21 01:11 41.973946 -87.911281 228 673ft 9kts
06-Aug-21 01:12 41.972438 -87.914416 269 673ft 13kts
06-Aug-21 01:13 41.972402 -87.919931 270 673ft 14kts
06-Aug-21 01:14 41.972359 -87.926026 266 673ft 0kts
06-Aug-21 01:15 41.971524 -87.930431 269 673ft 26kts
06-Aug-21 01:16 41.970638 -87.931373 178 673ft 11kts
06-Aug-21 01:17 41.969118 -87.889082 89 1389ft 296kts
06-Aug-21 01:18 41.984734 -87.787316 67 3172ft 256kts
06-Aug-21 01:19 42.009039 -87.698434 71 4957ft 256kts
06-Aug-21 01:20 42.027342 -87.604080 76 6762ft 266kts
06-Aug-21 01:21 42.043387 -87.504963 77 8568ft 276kts
06-Aug-21 01:22 42.059580 -87.401944 78 10025ft 292kts
06-Aug-21 01:23 42.076175 -87.295285 77 10702ft 289kts
06-Aug-21 01:24 42.092758 -87.188955 77 11704ft 292kts
06-Aug-21 01:25 42.108470 -87.079654 81 12700ft 304kts
06-Aug-21 01:26 42.116044 -86.964439 86 13707ft 311kts
06-Aug-21 01:27 42.120686 -86.843374 87 14744ft 372kts
06-Aug-21 01:28 42.125765 -86.695287 87 15772ft 409kts
06-Aug-21 01:29 42.131063 -86.539391 88 16781ft 421kts
06-Aug-21 01:30 42.136276 -86.380524 88 17783ft 429kts
06-Aug-21 01:31 42.141337 -86.218614 88 18785ft 436kts
06-Aug-21 01:32 42.144126 -86.054168 90 19784ft 445kts
06-Aug-21 01:33 42.143380 -85.885632 91 20787ft 454kts
06-Aug-21 01:34 42.141699 -85.713825 91 21789ft 463kts
06-Aug-21 01:35 42.139770 -85.538318 91 22792ft 472kts
06-Aug-21 01:36 42.137722 -85.360226 92 23793ft 481kts
06-Aug-21 01:36 42.135979 -85.209662 93 24662ft 482kts
06-Aug-21 01:38 42.132644 -84.998265 94 25826ft 487kts
06-Aug-21 01:39 42.129473 -84.815330 95 26828ft 491kts
06-Aug-21 01:40 42.126047 -84.631587 95 27834ft 487kts
06-Aug-21 01:41 42.125064 -84.454360 86 28844ft 465kts
06-Aug-21 01:42 42.140674 -84.281987 80 29853ft 464kts
06-Aug-21 01:42 42.157935 -84.138043 80 30686ft 467kts
06-Aug-21 01:43 42.178782 -83.963168 81 31096ft 477kts
06-Aug-21 01:45 42.201666 -83.757682 81 31093ft 476kts
06-Aug-21 01:46 42.220443 -83.580782 81 31093ft 476kts
06-Aug-21 01:46 42.231053 -83.432232 87 31094ft 476kts
06-Aug-21 01:47 42.234054 -83.254056 89 31093ft 476kts
06-Aug-21 01:48 42.234579 -83.075230 89 31093ft 476kts
06-Aug-21 01:49 42.234817 -82.896774 89 31093ft 476kts
06-Aug-21 01:50 42.235065 -82.717646 89 31093ft 476kts
06-Aug-21 01:51 42.235238 -82.538871 89 31093ft 476kts
06-Aug-21 01:52 42.235240 -82.360222 90 31093ft 476kts
06-Aug-21 01:53 42.235013 -82.181458 90 31093ft 476kts
06-Aug-21 01:54 42.234528 -82.003019 90 31093ft 476kts
06-Aug-21 01:55 42.233773 -81.824305 90 31093ft 476kts
06-Aug-21 01:56 42.232744 -81.645880 90 31093ft 476kts
06-Aug-21 01:57 42.231438 -81.467259 90 31093ft 476kts
06-Aug-21 01:58 42.229851 -81.288200 90 31093ft 476kts
06-Aug-21 01:59 42.227998 -81.109814 90 31093ft 476kts
06-Aug-21 02:00 42.225857 -80.930931 90 31093ft 476kts
06-Aug-21 02:01 42.223441 -80.752494 91 31093ft 476kts
06-Aug-21 02:02 42.220743 -80.573717 91 31093ft 476kts
06-Aug-21 02:03 42.217780 -80.395638 91 31093ft 476kts
06-Aug-21 02:04 42.214526 -80.216770 91 31093ft 476kts
06-Aug-21 02:05 42.210998 -80.038205 91 31093ft 476kts
06-Aug-21 02:06 42.207196 -79.859888 91 31093ft 476kts
06-Aug-21 02:07 42.203107 -79.681302 91 31093ft 476kts
06-Aug-21 02:08 42.198739 -79.502864 91 31093ft 476kts
06-Aug-21 02:09 42.194090 -79.324682 92 31093ft 476kts
06-Aug-21 02:10 42.187888 -79.146149 96 31092ft 476kts
06-Aug-21 02:11 42.156573 -78.972876 107 31094ft 477kts
06-Aug-21 02:12 42.113247 -78.803880 109 31093ft 476kts
06-Aug-21 02:13 42.068608 -78.635872 109 31093ft 476kts
06-Aug-21 02:14 42.024682 -78.468028 109 31093ft 476kts
06-Aug-21 02:15 41.981145 -78.299862 109 31093ft 476kts
06-Aug-21 02:16 41.937704 -78.131784 109 31093ft 476kts
06-Aug-21 02:17 41.907958 -78.017072 109 31093ft 476kts
06-Aug-21 02:18 41.907958 -78.017072 109 31093ft 476kts
06-Aug-21 02:19 41.907958 -78.017072 109 31093ft 476kts
06-Aug-21 02:20 41.876032 -77.894553 109 31093ft 476kts
06-Aug-21 02:21 41.832048 -77.727024 109 31093ft 476kts
06-Aug-21 02:22 41.787751 -77.559737 109 31077ft 477kts
06-Aug-21 02:23 41.742625 -77.389965 109 30160ft 492kts
06-Aug-21 02:24 41.696088 -77.216077 109 29163ft 499kts
06-Aug-21 02:25 41.648621 -77.040251 109 28165ft 503kts
06-Aug-21 02:26 41.600883 -76.864598 110 27172ft 506kts
06-Aug-21 02:27 41.552439 -76.687717 110 26175ft 506kts
06-Aug-21 02:28 41.503856 -76.511521 110 25180ft 506kts
06-Aug-21 02:29 41.455069 -76.335562 110 24183ft 505kts
06-Aug-21 02:30 41.406203 -76.160576 110 23188ft 504kts
06-Aug-21 02:31 41.357135 -75.986156 110 22192ft 503kts
06-Aug-21 02:32 41.307937 -75.812556 110 21197ft 501kts
06-Aug-21 02:33 41.257580 -75.642076 112 20178ft 462kts
06-Aug-21 02:34 41.212601 -75.506306 114 18362ft 350kts
06-Aug-21 02:35 41.173980 -75.393981 114 16558ft 328kts
06-Aug-21 02:36 41.136618 -75.283709 114 14762ft 328kts
06-Aug-21 02:37 41.099172 -75.172618 114 12963ft 330kts
06-Aug-21 02:38 41.061418 -75.061260 114 11168ft 332kts
06-Aug-21 02:39 41.023232 -74.949507 114 9375ft 334kts
06-Aug-21 02:40 40.993095 -74.832903 103 7585ft 337kts
06-Aug-21 02:41 40.977148 -74.710091 98 5791ft 339kts
06-Aug-21 02:42 40.964431 -74.587077 97 5087ft 339kts
06-Aug-21 02:43 40.951357 -74.462889 98 5088ft 341kts
06-Aug-21 02:44 40.937690 -74.338460 98 5088ft 342kts
06-Aug-21 02:45 40.923756 -74.214491 98 5088ft 342kts
06-Aug-21 02:46 40.896283 -74.097417 114 5222ft 297kts
06-Aug-21 02:47 40.860754 -74.022042 124 4077ft 210kts
06-Aug-21 02:48 40.829471 -73.961174 123 3139ft 194kts
06-Aug-21 02:49 40.796439 -73.908214 149 2682ft 184kts
06-Aug-21 02:50 40.742848 -73.894939 171 3804ft 192kts
06-Aug-21 02:51 40.699657 -73.875416 148 2179ft 179kts
06-Aug-21 02:52 40.661911 -73.836828 137 802ft 146kts
06-Aug-21 02:53 40.640839 -73.800172 121 19ft 56kts
06-Aug-21 02:54 40.640339 -73.799096 121 18ft 0kts
06-Aug-21 02:55 40.640335 -73.799088 121 18ft 0kts
06-Aug-21 02:56 40.640331 -73.799079 121 18ft 0kts
06-Aug-21 02:57 40.640329 -73.799074 121 18ft 0kts
06-Aug-21 02:58 40.640329 -73.799074 121 18ft 0kts
06-Aug-21 02:59 40.640329 -73.799074 121 18ft 0kts
06-Aug-21 03:00 40.640877 -73.788450 283 18ft 0kts
06-Aug-21 03:01 40.640879 -73.788460 283 18ft 0kts
06-Aug-21 03:02 40.640881 -73.788469 283 18ft 0kts
06-Aug-21 03:03 40.640883 -73.788479 283 18ft 0kts
06-Aug-21 03:04 40.640884 -73.788489 283 18ft 0kts
06-Aug-21 03:05 40.640886 -73.788499 283 18ft 0kts
06-Aug-21 03:06 40.640888 -73.788509 283 18ft 0kts
06-Aug-21 03:07 40.640889 -73.788519 283 18ft 0kts
06-Aug-21 03:08 40.640891 -73.788529 283 18ft 0kts

Navigation Log

Ident Type
Flight plan parsing failed, navigation log unavailable